createdAt,value
2019-04-22T00:02:09.576Z,10.10
2019-04-22T00:04:49.899Z,11.47
2019-04-22T00:07:28.514Z,9.70
2019-04-22T00:10:09.186Z,10.40
2019-04-22T00:12:38.606Z,12.10
2019-04-22T00:15:02.493Z,11.83
2019-04-22T00:17:46.595Z,10.33
2019-04-22T00:20:08.725Z,10.20
2019-04-22T00:25:10.033Z,11.40
2019-04-22T00:27:42.824Z,10.67
2019-04-22T00:30:15.469Z,9.93
2019-04-22T00:32:59.636Z,10.97
2019-04-22T00:35:23.787Z,11.03
2019-04-22T00:38:06.904Z,10.37
2019-04-22T00:40:34.111Z,11.60
2019-04-22T00:43:03.071Z,13.93
2019-04-22T00:45:34.409Z,13.43
2019-04-22T00:48:14.431Z,13.33
2019-04-22T00:50:55.489Z,12.43
2019-04-22T00:53:11.645Z,12.53
2019-04-22T00:55:38.098Z,14.07
2019-04-22T00:58:08.006Z,15.90
2019-04-22T01:00:40.556Z,13.90
2019-04-22T01:03:11.577Z,13.03
2019-04-22T01:05:43.862Z,12.93
2019-04-22T01:08:15.414Z,15.93
2019-04-22T01:10:49.860Z,13.20
2019-04-22T01:13:11.360Z,13.30
2019-04-22T01:15:40.597Z,13.30
2019-04-22T01:18:13.131Z,14.47
2019-04-22T01:21:00.932Z,16.70
2019-04-22T01:23:14.730Z,15.40
2019-04-22T01:25:41.721Z,13.10
2019-04-22T01:28:06.329Z,15.90
2019-04-22T01:30:32.648Z,14.00
2019-04-22T01:33:04.693Z,17.57
2019-04-22T01:35:37.771Z,14.20
2019-04-22T01:38:13.283Z,16.13
2019-04-22T01:40:57.711Z,16.30
2019-04-22T01:43:25.085Z,16.93
2019-04-22T01:45:54.379Z,14.67
2019-04-22T01:48:26.775Z,15.07
2019-04-22T01:50:52.781Z,14.83
2019-04-22T01:53:31.375Z,15.43
2019-04-22T01:55:57.363Z,14.83
2019-04-22T01:58:23.713Z,15.97
2019-04-22T02:01:18.424Z,16.93
2019-04-22T02:03:33.257Z,17.27
2019-04-22T02:05:59.516Z,15.93
2019-04-22T02:08:37.991Z,15.70
2019-04-22T02:11:00.999Z,20.50
2019-04-22T02:13:30.681Z,17.83
2019-04-22T02:16:19.722Z,16.33
2019-04-22T02:18:42.670Z,18.67
2019-04-22T02:21:01.451Z,19.00
2019-04-22T02:28:45.791Z,17.10
2019-04-22T02:41:23.309Z,17.47
2019-04-22T02:51:28.581Z,17.20
2019-04-22T02:56:28.488Z,18.23
2019-04-22T02:59:03.920Z,16.63
2019-04-22T03:01:29.943Z,16.40
2019-04-22T03:04:00.881Z,15.40
2019-04-22T03:06:34.748Z,18.37
2019-04-22T03:08:53.769Z,17.03
2019-04-22T03:11:25.211Z,16.90
2019-04-22T03:14:03.273Z,16.60
2019-04-22T03:16:33.272Z,18.10
2019-04-22T03:19:13.876Z,18.30
2019-04-22T03:24:08.796Z,15.13
2019-04-22T03:39:38.095Z,16.70
2019-04-22T04:02:02.619Z,19.13
2019-04-22T04:04:32.946Z,17.37
2019-04-22T04:07:11.181Z,15.97
2019-04-22T04:12:03.724Z,16.50
2019-04-22T04:14:46.650Z,18.17
2019-04-22T04:17:24.324Z,17.93
2019-04-22T04:22:11.910Z,18.37
2019-04-22T04:27:20.819Z,20.10
2019-04-22T04:29:56.108Z,15.40
2019-04-22T04:35:07.190Z,15.90
2019-04-22T04:37:28.255Z,14.73
2019-04-22T04:39:53.287Z,16.90
2019-04-22T04:42:25.382Z,14.87
2019-04-22T04:47:28.804Z,16.07
2019-04-22T04:54:58.899Z,15.70
2019-04-22T04:57:31.350Z,19.10
2019-04-22T05:07:34.688Z,18.47
2019-04-22T05:09:54.910Z,17.77
2019-04-22T05:12:34.316Z,17.00
2019-04-22T05:17:27.603Z,17.40
2019-04-22T05:19:47.701Z,16.77
2019-04-22T05:22:24.399Z,17.57
2019-04-22T05:24:51.962Z,18.17
2019-04-22T05:27:29.666Z,18.83
2019-04-22T05:30:08.752Z,16.83
2019-04-22T05:32:24.600Z,17.23
2019-04-22T05:34:52.998Z,16.53
2019-04-22T05:39:52.698Z,19.60
2019-04-22T05:42:17.839Z,19.17
2019-04-22T05:44:55.500Z,19.23
2019-04-22T05:47:19.555Z,17.57
2019-04-22T05:49:54.640Z,16.73
2019-04-22T05:52:40.487Z,16.03
2019-04-22T05:54:56.357Z,15.90
2019-04-22T05:57:26.603Z,14.37
2019-04-22T06:00:01.275Z,15.83
2019-04-22T06:02:39.330Z,19.73
2019-04-22T06:05:01.646Z,14.50
2019-04-22T06:07:29.465Z,15.97
2019-04-22T06:10:06.784Z,14.47
2019-04-22T06:12:26.037Z,15.07
2019-04-22T06:15:03.512Z,13.93
2019-04-22T06:17:38.998Z,13.87
2019-04-22T06:20:02.287Z,15.13
2019-04-22T06:22:43.156Z,14.70
2019-04-22T06:25:10.365Z,16.67
2019-04-22T06:30:11.143Z,16.13
2019-04-22T06:32:53.395Z,14.37
2019-04-22T06:35:22.182Z,13.37
2019-04-22T06:37:46.551Z,13.20
2019-04-22T06:40:16.892Z,12.20
2019-04-22T06:42:42.515Z,13.50
2019-04-22T06:45:10.783Z,14.17
2019-04-22T06:47:56.104Z,13.83
2019-04-22T06:50:21.513Z,12.97
2019-04-22T06:52:49.623Z,13.43
2019-04-22T06:55:15.137Z,13.90
2019-04-22T06:57:43.471Z,12.57
2019-04-22T07:00:23.040Z,13.30
2019-04-22T07:03:10.507Z,12.00
2019-04-22T07:05:19.775Z,12.00
2019-04-22T07:07:49.810Z,11.83
2019-04-22T07:10:30.197Z,11.80
2019-04-22T07:12:48.598Z,12.23
2019-04-22T07:15:40.089Z,11.30
2019-04-22T07:17:49.089Z,11.23
2019-04-22T07:20:25.886Z,13.50
2019-04-22T07:22:59.966Z,12.03
2019-04-22T07:25:15.975Z,10.57
2019-04-22T07:27:56.456Z,11.73
2019-04-22T07:30:21.995Z,11.50
2019-04-22T07:33:11.510Z,11.30
2019-04-22T07:35:28.973Z,11.20
2019-04-22T07:37:47.066Z,10.83
2019-04-22T07:40:28.296Z,11.07
2019-04-22T07:42:57.750Z,11.70
2019-04-22T07:45:44.303Z,11.27
2019-04-22T07:48:02.756Z,10.83
2019-04-22T07:52:58.104Z,10.47
2019-04-22T07:55:27.728Z,10.43
2019-04-22T07:57:58.291Z,11.53
2019-04-22T08:00:50.567Z,12.70
2019-04-22T08:03:09.814Z,10.63
2019-04-22T08:05:58.738Z,10.73
2019-04-22T08:13:05.440Z,9.97
2019-04-22T08:15:42.036Z,11.07
2019-04-22T08:18:16.346Z,10.47
2019-04-22T08:20:41.534Z,9.60
2019-04-22T08:23:22.120Z,9.77
2019-04-22T08:25:46.144Z,9.63
2019-04-22T08:30:49.180Z,11.97
2019-04-22T08:33:16.159Z,10.43
2019-04-22T08:36:00.852Z,9.20
2019-04-22T08:38:14.915Z,9.07
2019-04-22T08:41:17.878Z,9.37
2019-04-22T08:43:48.629Z,9.27
2019-04-22T08:46:17.015Z,8.80
2019-04-22T08:48:45.405Z,8.60
2019-04-22T08:51:18.879Z,7.93
2019-04-22T08:53:49.963Z,8.40
2019-04-22T08:56:28.368Z,8.90
2019-04-22T08:58:50.836Z,10.07
2019-04-22T09:01:17.663Z,8.73
2019-04-22T09:03:47.035Z,8.83
2019-04-22T09:11:23.923Z,8.03
2019-04-22T09:13:55.777Z,8.70
2019-04-22T09:16:26.456Z,8.30
2019-04-22T09:18:57.558Z,8.83
2019-04-22T09:21:31.641Z,9.90
2019-04-22T09:26:25.455Z,9.33
2019-04-22T09:28:59.481Z,7.30
2019-04-22T09:31:24.237Z,7.60
2019-04-22T09:33:54.692Z,8.20
2019-04-22T09:36:29.760Z,7.60
2019-04-22T09:38:52.779Z,8.13
2019-04-22T09:41:27.270Z,10.67
2019-04-22T09:43:56.621Z,9.20
2019-04-22T09:46:28.387Z,7.77
2019-04-22T09:51:30.935Z,7.47
2019-04-22T09:54:12.362Z,7.63
2019-04-22T09:56:32.852Z,7.30
2019-04-22T09:59:14.049Z,6.23
2019-04-22T10:01:38.511Z,5.80
2019-04-22T10:04:00.631Z,5.67
2019-04-22T10:06:33.998Z,6.03
2019-04-22T10:09:26.979Z,5.83
2019-04-22T10:14:05.718Z,5.83
2019-04-22T10:16:40.809Z,6.17
2019-04-22T10:19:04.619Z,7.70
2019-04-22T10:24:09.206Z,6.73
2019-04-22T10:26:39.630Z,5.90
2019-04-22T10:29:11.032Z,8.37
2019-04-22T10:33:58.492Z,8.47
2019-04-22T10:36:15.260Z,7.03
2019-04-22T10:38:44.550Z,6.93
2019-04-22T10:41:14.372Z,5.83
2019-04-22T10:43:43.408Z,6.33
2019-04-22T10:46:13.905Z,6.27
2019-04-22T10:48:44.164Z,5.73
2019-04-22T10:51:13.175Z,8.73
2019-04-22T10:53:41.990Z,7.13
2019-04-22T10:56:10.886Z,6.73
2019-04-22T10:58:40.430Z,7.73
2019-04-22T11:01:09.686Z,6.10
2019-04-22T11:03:39.577Z,8.27
2019-04-22T11:06:09.651Z,6.13
2019-04-22T11:08:46.561Z,7.03
2019-04-22T11:11:23.180Z,6.47
2019-04-22T11:13:39.993Z,6.73
2019-04-22T11:16:09.736Z,9.57
2019-04-22T11:18:38.868Z,9.53
2019-04-22T11:21:07.903Z,6.93
2019-04-22T11:23:36.738Z,6.97
2019-04-22T11:26:06.394Z,6.60
2019-04-22T11:28:37.919Z,6.47
2019-04-22T11:31:08.228Z,8.27
2019-04-22T11:33:38.482Z,9.53
2019-04-22T11:36:08.025Z,5.20
2019-04-22T11:38:44.653Z,7.13
2019-04-22T11:41:09.159Z,4.67
2019-04-22T11:43:38.956Z,6.13
2019-04-22T11:46:09.372Z,7.43
2019-04-22T11:48:38.358Z,6.50
2019-04-22T11:51:07.410Z,7.80
2019-04-22T11:53:36.729Z,8.50
2019-04-22T11:56:06.868Z,6.87
2019-04-22T11:58:37.019Z,6.73
2019-04-22T12:01:06.993Z,6.80
2019-04-22T12:03:35.952Z,6.77
2019-04-22T12:06:05.980Z,4.70
2019-04-22T12:08:35.733Z,5.70
2019-04-22T12:11:06.424Z,4.07
2019-04-22T12:13:37.849Z,5.67
2019-04-22T12:16:07.507Z,3.77
2019-04-22T12:18:37.323Z,4.77
2019-04-22T12:21:06.376Z,6.03
2019-04-22T12:23:36.964Z,6.57
2019-04-22T12:26:11.686Z,6.90
2019-04-22T12:28:37.105Z,5.37
2019-04-22T12:31:06.243Z,5.53
2019-04-22T12:33:35.267Z,4.00
2019-04-22T12:36:04.664Z,6.37
2019-04-22T12:38:33.528Z,5.13
2019-04-22T12:41:06.282Z,6.00
2019-04-22T12:43:33.652Z,5.77
2019-04-22T12:46:02.728Z,7.57
2019-04-22T12:48:32.812Z,4.87
2019-04-22T12:51:02.965Z,5.87
2019-04-22T12:53:32.052Z,6.00
2019-04-22T12:56:01.293Z,5.77
2019-04-22T12:58:37.844Z,4.32
2019-04-22T13:01:07.101Z,6.60
2019-04-22T13:03:36.207Z,5.53
2019-04-22T13:06:05.905Z,4.93
2019-04-22T13:08:35.831Z,5.60
2019-04-22T13:11:11.754Z,6.33
2019-04-22T13:13:36.691Z,4.67
2019-04-22T13:16:07.000Z,4.00
2019-04-22T13:18:43.432Z,3.50
2019-04-22T13:21:06.667Z,4.83
2019-04-22T13:23:36.837Z,5.27
2019-04-22T13:26:07.233Z,6.40
2019-04-22T13:28:36.779Z,5.37
2019-04-22T13:31:05.880Z,4.30
2019-04-22T13:33:34.775Z,3.80
2019-04-22T13:36:03.851Z,7.17
2019-04-22T13:38:33.157Z,5.63
2019-04-22T13:41:16.391Z,4.23
2019-04-22T13:43:32.661Z,5.13
2019-04-22T13:46:01.838Z,4.33
2019-04-22T13:48:53.370Z,5.37
2019-04-22T13:51:33.924Z,4.17
2019-04-22T13:54:30.003Z,5.13
2019-04-22T13:56:25.273Z,6.03
2019-04-22T13:58:49.881Z,7.83
2019-04-22T14:01:06.972Z,8.50
2019-04-22T14:04:00.691Z,5.53
2019-04-22T14:06:30.998Z,7.77
2019-04-22T14:09:01.181Z,6.03
2019-04-22T14:11:36.691Z,5.13
2019-04-22T14:14:00.854Z,5.93
2019-04-22T14:16:31.022Z,4.03
2019-04-22T14:19:00.214Z,4.27
2019-04-22T14:21:30.588Z,6.80
2019-04-22T14:24:00.398Z,5.50
2019-04-22T14:26:47.936Z,6.30
2019-04-22T14:29:00.120Z,4.50
2019-04-22T14:31:28.986Z,5.17
2019-04-22T14:34:02.817Z,6.27
2019-04-22T14:36:29.738Z,5.07
2019-04-22T14:38:59.741Z,6.27
2019-04-22T14:41:42.882Z,4.83
2019-04-22T14:45:00.785Z,5.93
2019-04-22T14:47:02.162Z,5.60
2019-04-22T14:49:23.975Z,4.40
2019-04-22T14:51:56.025Z,5.30
2019-04-22T14:54:21.258Z,5.60
2019-04-22T14:56:32.138Z,3.93
2019-04-22T14:59:00.959Z,5.70
2019-04-22T15:01:30.746Z,3.30
2019-04-22T15:04:00.803Z,3.40
2019-04-22T15:06:31.598Z,5.33
2019-04-22T15:09:01.683Z,7.43
2019-04-22T15:11:43.841Z,3.27
2019-04-22T15:14:01.335Z,4.67
2019-04-22T15:16:44.902Z,2.90
2019-04-22T15:19:33.844Z,4.63
2019-04-22T15:22:03.107Z,4.53
2019-04-22T15:24:32.265Z,5.87
2019-04-22T15:27:02.536Z,4.03
2019-04-22T15:29:31.770Z,6.53
2019-04-22T15:32:00.686Z,3.40
2019-04-22T15:34:30.616Z,3.57
2019-04-22T15:37:00.048Z,4.60
2019-04-22T15:39:29.320Z,5.87
2019-04-22T15:42:11.121Z,5.10
2019-04-22T15:44:30.244Z,3.67
2019-04-22T15:47:00.722Z,5.47
2019-04-22T15:49:29.939Z,4.30
2019-04-22T15:52:00.696Z,6.90
2019-04-22T15:54:29.852Z,5.03
2019-04-22T15:56:59.180Z,4.07
2019-04-22T15:59:47.728Z,3.20
2019-04-22T16:02:00.348Z,5.57
2019-04-22T16:04:30.729Z,3.43
2019-04-22T16:07:01.083Z,3.27
2019-04-22T16:09:31.257Z,4.83
2019-04-22T16:12:12.893Z,5.97
2019-04-22T16:14:37.199Z,4.97
2019-04-22T16:17:01.207Z,2.90
2019-04-22T16:19:30.975Z,5.63
2019-04-22T16:22:05.565Z,4.13
2019-04-22T16:24:47.911Z,5.97
2019-04-22T16:27:22.821Z,5.13
2019-04-22T16:29:51.813Z,4.23
2019-04-22T16:32:21.265Z,3.33
2019-04-22T16:34:50.188Z,2.10
2019-04-22T16:37:19.030Z,3.73
2019-04-22T16:39:50.296Z,5.87
2019-04-22T16:42:31.203Z,1.97
2019-04-22T16:44:49.573Z,4.43
2019-04-22T16:47:19.717Z,3.40
2019-04-22T16:49:49.766Z,2.10
2019-04-22T16:52:18.801Z,5.20
2019-04-22T16:54:47.671Z,2.50
2019-04-22T16:57:17.845Z,2.37
2019-04-22T16:59:46.823Z,2.83
2019-04-22T17:02:38.434Z,6.03
2019-04-22T17:05:17.895Z,6.40
2019-04-22T17:07:48.090Z,8.30
2019-04-22T17:10:17.777Z,2.10
2019-04-22T17:12:57.343Z,2.27
2019-04-22T17:15:20.019Z,2.40
2019-04-22T17:17:49.396Z,5.70
2019-04-22T17:20:18.527Z,3.43
2019-04-22T17:22:47.469Z,6.03
2019-04-22T17:25:16.483Z,3.80
2019-04-22T17:27:45.628Z,1.83
2019-04-22T17:30:15.081Z,2.67
2019-04-22T17:32:46.793Z,3.30
2019-04-22T17:35:15.934Z,2.83
2019-04-22T17:37:45.155Z,1.60
2019-04-22T17:40:36.623Z,3.17
2019-04-22T17:43:02.741Z,5.60
2019-04-22T17:45:49.197Z,6.47
2019-04-22T17:48:32.630Z,2.13
2019-04-22T17:51:10.609Z,2.17
2019-04-22T17:53:34.368Z,2.57
2019-04-22T17:56:02.144Z,2.40
2019-04-22T17:58:36.643Z,5.33
2019-04-22T18:01:05.569Z,2.77
2019-04-22T18:03:24.129Z,5.37
2019-04-22T18:05:52.153Z,3.67
2019-04-22T18:08:35.832Z,4.03
2019-04-22T18:11:04.518Z,2.17
2019-04-22T18:13:37.955Z,4.20
2019-04-22T18:16:08.127Z,2.43
2019-04-22T18:18:41.719Z,3.97
2019-04-22T18:21:06.319Z,3.47
2019-04-22T18:23:26.324Z,4.70
2019-04-22T18:26:09.890Z,5.23
2019-04-22T18:28:47.868Z,4.47
2019-04-22T18:31:10.661Z,5.00
2019-04-22T18:33:38.626Z,4.13
2019-04-22T18:36:09.970Z,3.53
2019-04-22T18:38:56.477Z,5.07
2019-04-22T18:41:09.045Z,2.63
2019-04-22T18:43:48.548Z,3.23
2019-04-22T18:46:14.641Z,4.17
2019-04-22T18:48:45.642Z,3.30
2019-04-22T18:51:25.015Z,2.37
2019-04-22T18:54:11.834Z,2.93
2019-04-22T18:56:42.257Z,2.10
2019-04-22T18:59:02.467Z,3.23
2019-04-22T19:01:24.087Z,4.70
2019-04-22T19:04:01.318Z,3.37
2019-04-22T19:06:46.183Z,4.10
2019-04-22T19:09:20.278Z,3.17
2019-04-22T19:11:55.234Z,4.67
2019-04-22T19:14:17.830Z,2.73
2019-04-22T19:16:44.767Z,3.83
2019-04-22T19:19:30.113Z,2.47
2019-04-22T19:21:47.619Z,2.60
2019-04-22T19:24:17.351Z,2.60
2019-04-22T19:26:58.777Z,7.13
2019-04-22T19:29:25.701Z,3.17
2019-04-22T19:31:51.308Z,4.00
2019-04-22T19:34:20.434Z,3.37
2019-04-22T19:36:59.333Z,2.13
2019-04-22T19:39:26.089Z,3.03
2019-04-22T19:42:03.630Z,4.63
2019-04-22T19:44:36.369Z,5.00
2019-04-22T19:47:17.627Z,4.40
2019-04-22T19:49:38.346Z,4.90
2019-04-22T19:52:05.157Z,9.57
2019-04-22T19:54:32.064Z,3.33
2019-04-22T19:56:53.154Z,4.13
2019-04-22T19:59:32.355Z,3.77
2019-04-22T20:02:34.591Z,6.47
2019-04-22T20:05:30.042Z,6.57
2019-04-22T20:07:51.093Z,8.93
2019-04-22T20:10:48.870Z,4.73
2019-04-22T20:13:28.861Z,6.70
2019-04-22T20:15:42.798Z,3.00
2019-04-22T20:18:29.701Z,6.67
2019-04-22T20:20:53.537Z,4.57
2019-04-22T20:23:14.341Z,4.13
2019-04-22T20:25:46.417Z,4.27
2019-04-22T20:28:19.409Z,7.37
2019-04-22T20:30:50.525Z,7.43
2019-04-22T20:33:25.709Z,4.67
2019-04-22T20:35:51.807Z,8.33
2019-04-22T20:38:20.902Z,5.33
2019-04-22T20:40:52.405Z,4.60
2019-04-22T20:43:33.722Z,4.90
2019-04-22T20:45:57.752Z,5.40
2019-04-22T20:48:13.557Z,6.83
2019-04-22T20:50:57.856Z,6.63
2019-04-22T20:53:30.196Z,3.83
2019-04-22T20:56:00.704Z,6.00
2019-04-22T20:58:29.743Z,6.17
2019-04-22T21:00:53.089Z,10.53
2019-04-22T21:03:24.360Z,5.27
2019-04-22T21:05:51.819Z,5.30
2019-04-22T21:08:33.398Z,7.03
2019-04-22T21:10:55.299Z,4.90
2019-04-22T21:13:26.121Z,5.97
2019-04-22T21:16:04.038Z,5.33
2019-04-22T21:18:27.944Z,3.67
2019-04-22T21:21:02.549Z,8.93
2019-04-22T21:23:29.213Z,5.37
2019-04-22T21:26:05.300Z,11.80
2019-04-22T21:28:38.304Z,4.00
2019-04-22T21:31:05.891Z,5.80
2019-04-22T21:33:37.882Z,7.20
2019-04-22T21:36:15.399Z,4.83
2019-04-22T21:38:42.459Z,4.23
2019-04-22T21:43:46.727Z,6.07
2019-04-22T21:46:11.813Z,11.00
2019-04-22T21:48:42.771Z,5.97
2019-04-22T21:51:16.557Z,6.10
2019-04-22T21:53:50.402Z,5.47
2019-04-22T21:56:32.921Z,6.50
2019-04-22T21:58:53.304Z,5.60
2019-04-22T22:01:38.087Z,5.80
2019-04-22T22:04:00.491Z,4.53
2019-04-22T22:06:23.579Z,6.10
2019-04-22T22:09:02.468Z,5.43
2019-04-22T22:11:27.713Z,6.40
2019-04-22T22:14:04.134Z,7.57
2019-04-22T22:16:29.420Z,5.97
2019-04-22T22:19:06.843Z,6.00
2019-04-22T22:21:43.416Z,9.27
2019-04-22T22:24:10.147Z,8.83
2019-04-22T22:26:40.560Z,5.50
2019-04-22T22:29:13.857Z,8.67
2019-04-22T22:31:44.392Z,5.60
2019-04-22T22:34:12.922Z,8.63
2019-04-22T22:36:33.540Z,5.67
2019-04-22T22:39:03.974Z,9.60
2019-04-22T22:41:18.538Z,7.50
2019-04-22T22:43:50.968Z,9.07
2019-04-22T22:46:29.674Z,9.17
2019-04-22T22:49:09.964Z,10.13
2019-04-22T22:51:45.287Z,8.60
2019-04-22T22:54:12.062Z,9.03
2019-04-22T22:56:46.994Z,10.80
2019-04-22T22:59:10.879Z,6.33
2019-04-22T23:01:40.779Z,7.87
2019-04-22T23:04:19.440Z,8.40
2019-04-22T23:06:44.338Z,8.87
2019-04-22T23:09:13.548Z,7.20
2019-04-22T23:14:17.190Z,11.23
2019-04-22T23:16:33.688Z,7.93
2019-04-22T23:19:02.060Z,6.43
2019-04-22T23:21:38.776Z,6.83
2019-04-22T23:24:23.386Z,7.53
2019-04-22T23:26:59.728Z,8.43
2019-04-22T23:29:39.559Z,7.60
2019-04-22T23:32:18.122Z,12.93
2019-04-22T23:34:57.124Z,7.73
2019-04-22T23:37:28.789Z,10.10
2019-04-22T23:40:17.496Z,7.37
2019-04-22T23:42:33.711Z,7.83
2019-04-22T23:45:09.547Z,6.60
2019-04-22T23:47:31.208Z,10.77
2019-04-22T23:50:08.846Z,11.27
2019-04-22T23:52:47.975Z,9.37
2019-04-22T23:55:17.751Z,8.60
2019-04-22T23:57:48.871Z,8.40
